createdAt,value
2023-03-04T06:03:00.995Z,8.12
2023-03-04T06:05:37.919Z,8.13
2023-03-04T06:08:08.354Z,8.15
2023-03-04T06:10:44.965Z,8.13
2023-03-04T06:13:15.480Z,8.15
2023-03-04T06:15:51.984Z,8.17
2023-03-04T06:18:31.946Z,8.17
2023-03-04T06:21:04.200Z,8.15
2023-03-04T06:23:42.019Z,8.15
2023-03-04T06:26:21.984Z,8.17
2023-03-04T06:28:52.215Z,8.17
2023-03-04T06:31:29.051Z,8.19
2023-03-04T06:34:02.027Z,8.18
2023-03-04T06:36:39.086Z,8.17
2023-03-04T06:39:16.990Z,8.16
2023-03-04T06:41:48.547Z,8.16
2023-03-04T06:44:25.114Z,8.15
2023-03-04T06:46:55.438Z,8.17
2023-03-04T06:49:35.015Z,8.18
2023-03-04T06:52:05.968Z,8.21
2023-03-04T06:54:43.021Z,8.22
2023-03-04T06:57:13.789Z,8.22
2023-03-04T06:59:49.991Z,8.26
2023-03-04T07:02:27.021Z,8.25
2023-03-04T07:04:59.965Z,8.29
2023-03-04T07:07:37.155Z,8.32
2023-03-04T07:10:10.144Z,8.31
2023-03-04T07:12:47.234Z,8.26
2023-03-04T07:15:24.164Z,8.27
2023-03-04T07:17:54.615Z,8.28
2023-03-04T07:20:34.020Z,8.33
2023-03-04T07:23:04.664Z,8.60
2023-03-04T07:25:41.030Z,9.11
2023-03-04T07:28:18.337Z,9.22
2023-03-04T07:30:48.798Z,9.21
2023-03-04T07:33:26.060Z,9.24
2023-03-04T07:36:11.097Z,9.24
2023-03-04T07:38:41.328Z,9.25
2023-03-04T07:41:18.147Z,9.35
2023-03-04T07:43:58.203Z,9.52
2023-03-04T07:46:28.864Z,9.61
2023-03-04T07:49:06.125Z,9.63
2023-03-04T07:51:45.202Z,9.68
2023-03-04T07:54:15.538Z,9.78
2023-03-04T07:56:53.114Z,9.89
2023-03-04T07:59:23.283Z,9.95
2023-03-04T08:02:01.093Z,10.01
2023-03-04T08:04:31.384Z,10.18
2023-03-04T08:07:11.196Z,10.40
2023-03-04T08:09:48.536Z,10.48
2023-03-04T08:12:19.046Z,10.48
2023-03-04T08:14:56.119Z,10.53
2023-03-04T08:17:26.411Z,10.53
2023-03-04T08:20:03.109Z,10.46
2023-03-04T08:22:42.081Z,10.44
2023-03-04T08:25:13.491Z,10.44
2023-03-04T08:27:50.132Z,10.52
2023-03-04T08:30:27.155Z,10.74
2023-03-04T08:32:57.572Z,11.12
2023-03-04T08:35:34.476Z,11.50
2023-03-04T08:38:08.438Z,11.72
2023-03-04T08:40:45.253Z,11.76
2023-03-04T08:43:15.340Z,12.14
2023-03-04T08:45:52.115Z,12.70
2023-03-04T08:48:29.147Z,13.07
2023-03-04T08:50:59.512Z,13.23
2023-03-04T08:53:39.162Z,13.19
2023-03-04T08:56:11.124Z,13.07
2023-03-04T08:58:48.160Z,12.59
2023-03-04T09:01:26.194Z,12.61
2023-03-04T09:03:56.292Z,12.45
2023-03-04T09:06:33.187Z,12.32
2023-03-04T09:09:12.170Z,12.19
2023-03-04T09:11:42.485Z,12.01
2023-03-04T09:14:19.196Z,11.96
2023-03-04T09:16:56.186Z,11.96
2023-03-04T09:19:27.789Z,11.96
2023-03-04T09:22:06.193Z,11.79
2023-03-04T09:24:48.193Z,11.65
2023-03-04T09:27:18.393Z,11.60
2023-03-04T09:29:55.286Z,11.50
2023-03-04T09:32:32.228Z,11.50
2023-03-04T09:35:02.326Z,11.55
2023-03-04T09:37:41.285Z,11.75
2023-03-04T09:40:21.568Z,12.22
2023-03-04T09:43:03.247Z,12.85
2023-03-04T09:45:48.224Z,13.12
2023-03-04T09:48:24.694Z,13.18
2023-03-04T09:51:17.429Z,13.04
2023-03-04T09:54:01.002Z,12.90
2023-03-04T09:56:43.268Z,12.72
2023-03-04T09:59:24.686Z,12.48
2023-03-04T10:02:05.218Z,12.44
2023-03-04T10:04:43.415Z,12.52
2023-03-04T10:07:28.211Z,12.56
2023-03-04T10:10:04.211Z,12.46
2023-03-04T10:12:47.229Z,12.36
2023-03-04T10:15:37.330Z,12.28
2023-03-04T10:18:20.077Z,12.27
2023-03-04T10:21:04.268Z,12.34
2023-03-04T10:23:37.747Z,12.40
2023-03-04T10:26:23.515Z,12.57
2023-03-04T10:28:56.296Z,12.87
2023-03-04T10:31:43.243Z,13.15
2023-03-04T10:34:15.269Z,13.48
2023-03-04T10:37:06.292Z,13.65
2023-03-04T10:39:39.696Z,13.84
2023-03-04T10:42:33.467Z,13.81
2023-03-04T10:45:14.276Z,13.66
2023-03-04T10:47:54.519Z,13.43
2023-03-04T10:50:38.246Z,13.24
2023-03-04T10:53:08.437Z,12.92
2023-03-04T10:55:54.360Z,12.54
2023-03-04T10:58:31.248Z,12.18
2023-03-04T11:01:17.749Z,12.01
2023-03-04T11:03:59.393Z,12.00
2023-03-04T11:06:31.546Z,12.11
2023-03-04T11:09:09.321Z,12.31
2023-03-04T11:11:46.173Z,12.46
2023-03-04T11:14:32.279Z,12.85
2023-03-04T11:17:19.043Z,13.35
2023-03-04T11:20:01.350Z,13.66
2023-03-04T11:22:33.207Z,13.78
2023-03-04T11:25:14.304Z,13.45
2023-03-04T11:27:51.957Z,13.31
2023-03-04T11:30:50.392Z,13.06
2023-03-04T11:33:37.345Z,13.05
2023-03-04T11:36:32.985Z,12.86
2023-03-04T11:39:11.403Z,12.75
2023-03-04T11:41:47.159Z,12.53
2023-03-04T11:44:24.393Z,12.42
2023-03-04T11:47:34.406Z,12.30
2023-03-04T11:50:34.446Z,12.12
2023-03-04T11:53:30.371Z,12.03
2023-03-04T11:56:25.470Z,12.06
2023-03-04T11:59:30.390Z,12.06
2023-03-04T12:02:20.424Z,12.19
2023-03-04T12:05:33.373Z,12.30
2023-03-04T12:08:51.357Z,12.33
2023-03-04T12:11:38.401Z,12.50
2023-03-04T12:14:31.154Z,12.30
2023-03-04T12:17:34.561Z,12.09
2023-03-04T12:20:47.420Z,11.68
2023-03-04T12:23:46.738Z,11.64
2023-03-04T12:26:35.484Z,11.60
2023-03-04T12:29:14.682Z,11.68
2023-03-04T12:31:52.402Z,11.65
2023-03-04T12:35:11.432Z,11.58
2023-03-04T12:38:20.486Z,11.41
2023-03-04T12:40:58.058Z,11.40
2023-03-04T12:43:55.402Z,11.13
2023-03-04T12:46:45.787Z,11.05
2023-03-04T12:49:42.462Z,11.03
2023-03-04T12:52:24.867Z,11.07
2023-03-04T12:55:11.473Z,11.12
2023-03-04T12:57:48.518Z,11.25
2023-03-04T13:00:33.823Z,11.31
2023-03-04T13:03:20.582Z,11.45
2023-03-04T13:06:15.446Z,11.61
2023-03-04T13:09:08.472Z,11.77
2023-03-04T13:12:11.462Z,11.81
2023-03-04T13:14:41.660Z,12.04
2023-03-04T13:17:50.462Z,12.02
2023-03-04T13:20:34.668Z,12.06
2023-03-04T13:23:13.446Z,12.06
2023-03-04T13:25:45.371Z,12.09
2023-03-04T13:28:32.485Z,11.84
2023-03-04T13:31:18.313Z,11.81
2023-03-04T13:34:06.514Z,11.75
2023-03-04T13:37:01.135Z,11.58
2023-03-04T13:39:45.496Z,11.59
2023-03-04T13:42:45.033Z,11.49
2023-03-04T13:45:48.574Z,11.63
2023-03-04T13:48:43.530Z,11.62
2023-03-04T13:51:28.891Z,11.64
2023-03-04T13:54:17.622Z,11.68
2023-03-04T13:56:56.536Z,11.75
2023-03-04T13:59:37.977Z,11.73
